sensor_id;sensor_type;location;lat;lon;timestamp;temperature;humidity
5192;DHT22;2615;44.524;11.284;2023-03-30T00:01:04;14.30;52.70
5192;DHT22;2615;44.524;11.284;2023-03-30T00:03:37;14.40;52.80
5192;DHT22;2615;44.524;11.284;2023-03-30T00:06:06;14.30;52.90
5192;DHT22;2615;44.524;11.284;2023-03-30T00:08:35;14.30;52.90
5192;DHT22;2615;44.524;11.284;2023-03-30T00:11:05;14.30;52.90
5192;DHT22;2615;44.524;11.284;2023-03-30T00:13:34;14.30;53.00
5192;DHT22;2615;44.524;11.284;2023-03-30T00:16:05;14.30;53.10
5192;DHT22;2615;44.524;11.284;2023-03-30T00:18:33;14.30;53.70
5192;DHT22;2615;44.524;11.284;2023-03-30T00:21:05;14.30;53.20
5192;DHT22;2615;44.524;11.284;2023-03-30T00:23:33;14.30;53.30
5192;DHT22;2615;44.524;11.284;2023-03-30T00:26:02;14.30;53.30
5192;DHT22;2615;44.524;11.284;2023-03-30T00:28:30;14.30;53.40
5192;DHT22;2615;44.524;11.284;2023-03-30T00:30:58;14.20;53.40
5192;DHT22;2615;44.524;11.284;2023-03-30T00:33:27;14.20;53.50
5192;DHT22;2615;44.524;11.284;2023-03-30T00:36:13;14.20;53.50
5192;DHT22;2615;44.524;11.284;2023-03-30T00:38:42;14.20;53.50
5192;DHT22;2615;44.524;11.284;2023-03-30T00:41:11;14.20;53.60
5192;DHT22;2615;44.524;11.284;2023-03-30T00:43:59;14.20;53.60
5192;DHT22;2615;44.524;11.284;2023-03-30T00:46:27;14.20;53.90
5192;DHT22;2615;44.524;11.284;2023-03-30T00:48:59;14.20;53.70
5192;DHT22;2615;44.524;11.284;2023-03-30T00:51:31;14.20;53.90
5192;DHT22;2615;44.524;11.284;2023-03-30T00:54:04;14.20;53.90
5192;DHT22;2615;44.524;11.284;2023-03-30T00:56:33;14.20;53.90
5192;DHT22;2615;44.524;11.284;2023-03-30T00:59:02;14.20;53.90
5192;DHT22;2615;44.524;11.284;2023-03-30T01:01:31;14.20;54.00
5192;DHT22;2615;44.524;11.284;2023-03-30T01:04:06;14.20;54.10
5192;DHT22;2615;44.524;11.284;2023-03-30T01:06:38;14.20;54.10
5192;DHT22;2615;44.524;11.284;2023-03-30T01:09:09;14.20;54.20
5192;DHT22;2615;44.524;11.284;2023-03-30T01:11:37;14.20;54.20
5192;DHT22;2615;44.524;11.284;2023-03-30T01:14:08;14.20;54.20
5192;DHT22;2615;44.524;11.284;2023-03-30T01:16:43;14.10;54.20
5192;DHT22;2615;44.524;11.284;2023-03-30T01:19:31;14.20;54.40
5192;DHT22;2615;44.524;11.284;2023-03-30T01:25:34;14.20;54.50
5192;DHT22;2615;44.524;11.284;2023-03-30T01:28:24;14.20;54.40
5192;DHT22;2615;44.524;11.284;2023-03-30T01:34:30;14.20;54.50
5192;DHT22;2615;44.524;11.284;2023-03-30T01:37:31;14.20;54.40
5192;DHT22;2615;44.524;11.284;2023-03-30T01:40:06;14.20;54.50
5192;DHT22;2615;44.524;11.284;2023-03-30T01:42:39;14.20;54.40
5192;DHT22;2615;44.524;11.284;2023-03-30T01:45:11;14.20;54.40
5192;DHT22;2615;44.524;11.284;2023-03-30T01:47:48;14.20;54.50
5192;DHT22;2615;44.524;11.284;2023-03-30T01:50:22;14.20;54.60
5192;DHT22;2615;44.524;11.284;2023-03-30T01:52:54;14.10;54.60
5192;DHT22;2615;44.524;11.284;2023-03-30T01:55:28;14.20;54.70
5192;DHT22;2615;44.524;11.284;2023-03-30T01:58:01;14.20;54.70
5192;DHT22;2615;44.524;11.284;2023-03-30T02:00:30;14.20;54.80
5192;DHT22;2615;44.524;11.284;2023-03-30T02:03:03;14.20;54.80
5192;DHT22;2615;44.524;11.284;2023-03-30T02:05:34;14.20;54.90
5192;DHT22;2615;44.524;11.284;2023-03-30T02:08:07;14.20;54.80
5192;DHT22;2615;44.524;11.284;2023-03-30T02:10:39;14.20;54.90
5192;DHT22;2615;44.524;11.284;2023-03-30T02:13:09;14.20;54.90
5192;DHT22;2615;44.524;11.284;2023-03-30T02:15:41;14.20;54.90
5192;DHT22;2615;44.524;11.284;2023-03-30T02:18:10;14.20;55.00
5192;DHT22;2615;44.524;11.284;2023-03-30T02:20:38;14.20;55.00
5192;DHT22;2615;44.524;11.284;2023-03-30T02:23:06;14.20;55.00
5192;DHT22;2615;44.524;11.284;2023-03-30T02:25:35;14.20;55.10
5192;DHT22;2615;44.524;11.284;2023-03-30T02:28:07;14.20;55.10
5192;DHT22;2615;44.524;11.284;2023-03-30T02:30:39;14.20;55.20
5192;DHT22;2615;44.524;11.284;2023-03-30T02:33:13;14.20;55.20
5192;DHT22;2615;44.524;11.284;2023-03-30T02:36:15;14.20;55.20
5192;DHT22;2615;44.524;11.284;2023-03-30T02:38:57;14.20;55.30
5192;DHT22;2615;44.524;11.284;2023-03-30T02:41:47;14.20;55.20
5192;DHT22;2615;44.524;11.284;2023-03-30T02:44:27;14.20;55.20
5192;DHT22;2615;44.524;11.284;2023-03-30T02:47:03;14.10;55.20
5192;DHT22;2615;44.524;11.284;2023-03-30T02:49:49;14.10;55.20
5192;DHT22;2615;44.524;11.284;2023-03-30T02:52:26;14.10;55.30
5192;DHT22;2615;44.524;11.284;2023-03-30T02:55:08;14.10;55.30
5192;DHT22;2615;44.524;11.284;2023-03-30T02:57:45;14.10;55.40
5192;DHT22;2615;44.524;11.284;2023-03-30T03:00:24;14.10;55.40
5192;DHT22;2615;44.524;11.284;2023-03-30T03:02:58;14.10;55.40
5192;DHT22;2615;44.524;11.284;2023-03-30T03:05:27;14.10;55.40
5192;DHT22;2615;44.524;11.284;2023-03-30T03:07:58;14.10;55.40
5192;DHT22;2615;44.524;11.284;2023-03-30T03:10:26;14.10;55.40
5192;DHT22;2615;44.524;11.284;2023-03-30T03:12:54;14.10;55.50
5192;DHT22;2615;44.524;11.284;2023-03-30T03:15:23;14.10;55.60
5192;DHT22;2615;44.524;11.284;2023-03-30T03:17:51;14.10;55.60
5192;DHT22;2615;44.524;11.284;2023-03-30T03:20:20;14.10;55.60
5192;DHT22;2615;44.524;11.284;2023-03-30T03:22:48;14.10;55.60
5192;DHT22;2615;44.524;11.284;2023-03-30T03:25:16;14.10;55.70
5192;DHT22;2615;44.524;11.284;2023-03-30T03:27:44;14.10;55.70
5192;DHT22;2615;44.524;11.284;2023-03-30T03:30:13;14.00;55.70
5192;DHT22;2615;44.524;11.284;2023-03-30T03:32:42;14.00;55.70
5192;DHT22;2615;44.524;11.284;2023-03-30T03:35:11;14.00;55.80
5192;DHT22;2615;44.524;11.284;2023-03-30T03:37:39;14.00;55.80
5192;DHT22;2615;44.524;11.284;2023-03-30T03:40:08;14.00;55.80
5192;DHT22;2615;44.524;11.284;2023-03-30T03:42:37;14.00;55.90
5192;DHT22;2615;44.524;11.284;2023-03-30T03:45:06;14.00;55.90
5192;DHT22;2615;44.524;11.284;2023-03-30T03:47:34;13.90;55.80
5192;DHT22;2615;44.524;11.284;2023-03-30T03:50:05;14.00;56.00
5192;DHT22;2615;44.524;11.284;2023-03-30T03:52:35;13.90;56.00
5192;DHT22;2615;44.524;11.284;2023-03-30T03:55:04;13.90;56.00
5192;DHT22;2615;44.524;11.284;2023-03-30T03:57:33;13.90;56.10
5192;DHT22;2615;44.524;11.284;2023-03-30T04:00:03;13.90;56.10
5192;DHT22;2615;44.524;11.284;2023-03-30T04:02:31;13.80;56.00
5192;DHT22;2615;44.524;11.284;2023-03-30T04:04:59;13.80;56.00
5192;DHT22;2615;44.524;11.284;2023-03-30T04:07:29;13.70;55.90
5192;DHT22;2615;44.524;11.284;2023-03-30T04:09:57;13.70;55.90
5192;DHT22;2615;44.524;11.284;2023-03-30T04:12:25;13.60;55.80
5192;DHT22;2615;44.524;11.284;2023-03-30T04:14:53;13.60;55.70
5192;DHT22;2615;44.524;11.284;2023-03-30T04:17:21;13.50;55.70
5192;DHT22;2615;44.524;11.284;2023-03-30T04:19:50;13.30;55.50
5192;DHT22;2615;44.524;11.284;2023-03-30T04:22:20;13.30;55.50
5192;DHT22;2615;44.524;11.284;2023-03-30T04:24:51;13.20;55.40
5192;DHT22;2615;44.524;11.284;2023-03-30T04:27:19;13.20;55.50
5192;DHT22;2615;44.524;11.284;2023-03-30T04:29:51;13.10;55.40
5192;DHT22;2615;44.524;11.284;2023-03-30T04:32:23;13.00;55.40
5192;DHT22;2615;44.524;11.284;2023-03-30T04:34:51;13.00;55.50
5192;DHT22;2615;44.524;11.284;2023-03-30T04:37:20;12.90;55.40
5192;DHT22;2615;44.524;11.284;2023-03-30T04:39:51;12.90;55.40
5192;DHT22;2615;44.524;11.284;2023-03-30T04:42:19;12.80;55.40
5192;DHT22;2615;44.524;11.284;2023-03-30T04:44:47;12.80;55.50
5192;DHT22;2615;44.524;11.284;2023-03-30T04:47:16;12.70;56.00
5192;DHT22;2615;44.524;11.284;2023-03-30T04:49:45;12.70;55.50
5192;DHT22;2615;44.524;11.284;2023-03-30T04:52:13;12.70;55.50
5192;DHT22;2615;44.524;11.284;2023-03-30T04:54:41;12.70;55.50
5192;DHT22;2615;44.524;11.284;2023-03-30T04:57:10;12.70;55.60
5192;DHT22;2615;44.524;11.284;2023-03-30T04:59:40;12.60;55.60
5192;DHT22;2615;44.524;11.284;2023-03-30T05:02:08;12.60;55.60
5192;DHT22;2615;44.524;11.284;2023-03-30T05:04:38;12.60;55.70
5192;DHT22;2615;44.524;11.284;2023-03-30T05:07:06;12.60;55.80
5192;DHT22;2615;44.524;11.284;2023-03-30T05:09:34;12.60;55.80
5192;DHT22;2615;44.524;11.284;2023-03-30T05:12:02;12.60;55.90
5192;DHT22;2615;44.524;11.284;2023-03-30T05:14:32;12.50;55.80
5192;DHT22;2615;44.524;11.284;2023-03-30T05:17:00;12.50;55.90
5192;DHT22;2615;44.524;11.284;2023-03-30T05:19:28;12.50;55.90
5192;DHT22;2615;44.524;11.284;2023-03-30T05:21:56;12.50;55.90
5192;DHT22;2615;44.524;11.284;2023-03-30T05:24:25;12.50;56.00
5192;DHT22;2615;44.524;11.284;2023-03-30T05:26:53;12.50;56.00
5192;DHT22;2615;44.524;11.284;2023-03-30T05:29:22;12.50;56.00
5192;DHT22;2615;44.524;11.284;2023-03-30T05:31:51;12.50;56.00
5192;DHT22;2615;44.524;11.284;2023-03-30T05:34:19;12.50;56.10
5192;DHT22;2615;44.524;11.284;2023-03-30T05:36:47;12.50;56.10
5192;DHT22;2615;44.524;11.284;2023-03-30T05:39:16;12.60;56.20
5192;DHT22;2615;44.524;11.284;2023-03-30T05:41:44;12.60;56.20
5192;DHT22;2615;44.524;11.284;2023-03-30T05:44:12;12.70;56.20
5192;DHT22;2615;44.524;11.284;2023-03-30T05:46:40;12.70;56.20
5192;DHT22;2615;44.524;11.284;2023-03-30T05:49:10;12.70;56.20
5192;DHT22;2615;44.524;11.284;2023-03-30T05:51:38;12.70;56.30
5192;DHT22;2615;44.524;11.284;2023-03-30T05:54:09;12.80;56.30
5192;DHT22;2615;44.524;11.284;2023-03-30T05:56:37;12.80;56.30
5192;DHT22;2615;44.524;11.284;2023-03-30T05:59:06;12.90;56.40
5192;DHT22;2615;44.524;11.284;2023-03-30T06:01:34;12.90;56.40
5192;DHT22;2615;44.524;11.284;2023-03-30T06:04:03;13.00;56.50
5192;DHT22;2615;44.524;11.284;2023-03-30T06:06:33;13.00;56.50
5192;DHT22;2615;44.524;11.284;2023-03-30T06:09:01;13.10;56.60
5192;DHT22;2615;44.524;11.284;2023-03-30T06:11:30;13.10;56.60
5192;DHT22;2615;44.524;11.284;2023-03-30T06:13:58;13.20;56.60
5192;DHT22;2615;44.524;11.284;2023-03-30T06:16:26;13.20;56.60
5192;DHT22;2615;44.524;11.284;2023-03-30T06:18:55;13.30;56.70
5192;DHT22;2615;44.524;11.284;2023-03-30T06:21:23;13.30;56.70
5192;DHT22;2615;44.524;11.284;2023-03-30T06:23:53;13.40;56.70
5192;DHT22;2615;44.524;11.284;2023-03-30T06:26:21;13.40;56.70
5192;DHT22;2615;44.524;11.284;2023-03-30T06:28:49;13.50;56.80
5192;DHT22;2615;44.524;11.284;2023-03-30T06:31:17;13.50;56.80
5192;DHT22;2615;44.524;11.284;2023-03-30T06:33:45;13.60;56.80
5192;DHT22;2615;44.524;11.284;2023-03-30T06:36:16;13.50;56.70
5192;DHT22;2615;44.524;11.284;2023-03-30T06:38:44;13.70;56.70
5192;DHT22;2615;44.524;11.284;2023-03-30T06:41:14;13.70;56.60
5192;DHT22;2615;44.524;11.284;2023-03-30T06:43:42;13.80;56.60
5192;DHT22;2615;44.524;11.284;2023-03-30T06:46:10;13.80;56.50
5192;DHT22;2615;44.524;11.284;2023-03-30T06:48:38;13.90;56.50
5192;DHT22;2615;44.524;11.284;2023-03-30T06:51:06;13.90;56.40
5192;DHT22;2615;44.524;11.284;2023-03-30T06:53:34;13.90;56.40
5192;DHT22;2615;44.524;11.284;2023-03-30T06:56:02;14.00;56.40
5192;DHT22;2615;44.524;11.284;2023-03-30T06:58:32;14.00;56.30
5192;DHT22;2615;44.524;11.284;2023-03-30T07:01:08;14.10;56.40
5192;DHT22;2615;44.524;11.284;2023-03-30T07:03:36;14.10;56.50
5192;DHT22;2615;44.524;11.284;2023-03-30T07:06:05;14.20;56.50
5192;DHT22;2615;44.524;11.284;2023-03-30T07:08:34;14.30;56.50
5192;DHT22;2615;44.524;11.284;2023-03-30T07:11:03;14.40;56.60
5192;DHT22;2615;44.524;11.284;2023-03-30T07:13:34;14.50;56.50
5192;DHT22;2615;44.524;11.284;2023-03-30T07:16:02;14.50;56.40
5192;DHT22;2615;44.524;11.284;2023-03-30T07:18:30;14.60;56.40
5192;DHT22;2615;44.524;11.284;2023-03-30T07:20:58;14.70;56.30
5192;DHT22;2615;44.524;11.284;2023-03-30T07:23:27;14.70;56.30
5192;DHT22;2615;44.524;11.284;2023-03-30T07:25:55;14.80;56.20
5192;DHT22;2615;44.524;11.284;2023-03-30T07:28:23;14.80;56.10
5192;DHT22;2615;44.524;11.284;2023-03-30T07:30:53;14.90;56.10
5192;DHT22;2615;44.524;11.284;2023-03-30T07:33:21;15.00;55.90
5192;DHT22;2615;44.524;11.284;2023-03-30T07:35:49;15.10;55.70
5192;DHT22;2615;44.524;11.284;2023-03-30T07:38:18;15.20;55.60
5192;DHT22;2615;44.524;11.284;2023-03-30T07:40:46;15.30;55.50
5192;DHT22;2615;44.524;11.284;2023-03-30T07:43:14;15.30;55.40
5192;DHT22;2615;44.524;11.284;2023-03-30T07:45:42;15.40;55.30
5192;DHT22;2615;44.524;11.284;2023-03-30T07:48:12;15.50;55.20
5192;DHT22;2615;44.524;11.284;2023-03-30T07:50:40;15.60;55.30
5192;DHT22;2615;44.524;11.284;2023-03-30T07:53:08;15.60;55.00
5192;DHT22;2615;44.524;11.284;2023-03-30T07:55:37;15.70;55.00
5192;DHT22;2615;44.524;11.284;2023-03-30T07:58:05;15.80;54.90
5192;DHT22;2615;44.524;11.284;2023-03-30T08:00:34;15.80;54.90
5192;DHT22;2615;44.524;11.284;2023-03-30T08:03:02;15.90;55.00
5192;DHT22;2615;44.524;11.284;2023-03-30T08:05:32;16.00;54.80
5192;DHT22;2615;44.524;11.284;2023-03-30T08:08:00;16.00;54.60
5192;DHT22;2615;44.524;11.284;2023-03-30T08:10:28;16.10;54.70
5192;DHT22;2615;44.524;11.284;2023-03-30T08:12:56;16.10;54.70
5192;DHT22;2615;44.524;11.284;2023-03-30T08:15:24;16.20;54.80
5192;DHT22;2615;44.524;11.284;2023-03-30T08:17:53;16.40;54.80
5192;DHT22;2615;44.524;11.284;2023-03-30T08:20:21;16.50;54.60
5192;DHT22;2615;44.524;11.284;2023-03-30T08:22:51;16.60;54.50
5192;DHT22;2615;44.524;11.284;2023-03-30T08:25:19;16.80;54.50
5192;DHT22;2615;44.524;11.284;2023-03-30T08:27:47;17.00;54.40
5192;DHT22;2615;44.524;11.284;2023-03-30T08:30:15;17.00;54.00
5192;DHT22;2615;44.524;11.284;2023-03-30T08:32:43;17.20;54.00
5192;DHT22;2615;44.524;11.284;2023-03-30T08:35:12;17.20;53.80
5192;DHT22;2615;44.524;11.284;2023-03-30T08:37:40;17.30;53.70
5192;DHT22;2615;44.524;11.284;2023-03-30T08:40:11;17.40;53.80
5192;DHT22;2615;44.524;11.284;2023-03-30T08:45:35;17.60;53.50
5192;DHT22;2615;44.524;11.284;2023-03-30T08:48:15;17.70;53.50
5192;DHT22;2615;44.524;11.284;2023-03-30T08:50:47;17.70;53.30
5192;DHT22;2615;44.524;11.284;2023-03-30T08:53:17;17.60;53.10
5192;DHT22;2615;44.524;11.284;2023-03-30T08:55:49;17.60;53.00
5192;DHT22;2615;44.524;11.284;2023-03-30T08:58:25;17.60;53.00
5192;DHT22;2615;44.524;11.284;2023-03-30T09:01:13;17.60;52.90
5192;DHT22;2615;44.524;11.284;2023-03-30T09:03:56;17.60;52.90
5192;DHT22;2615;44.524;11.284;2023-03-30T09:06:32;17.60;52.80
5192;DHT22;2615;44.524;11.284;2023-03-30T09:09:08;17.60;52.70
5192;DHT22;2615;44.524;11.284;2023-03-30T09:11:40;17.70;52.80
5192;DHT22;2615;44.524;11.284;2023-03-30T09:14:14;17.80;52.80
5192;DHT22;2615;44.524;11.284;2023-03-30T09:16:50;17.80;52.50
5192;DHT22;2615;44.524;11.284;2023-03-30T09:19:22;17.90;52.70
5192;DHT22;2615;44.524;11.284;2023-03-30T09:21:52;18.00;52.90
5192;DHT22;2615;44.524;11.284;2023-03-30T09:24:25;18.10;52.80
5192;DHT22;2615;44.524;11.284;2023-03-30T09:26:59;18.30;52.70
5192;DHT22;2615;44.524;11.284;2023-03-30T09:29:31;18.50;52.60
5192;DHT22;2615;44.524;11.284;2023-03-30T09:32:03;18.50;52.30
5192;DHT22;2615;44.524;11.284;2023-03-30T09:34:41;18.70;52.20
5192;DHT22;2615;44.524;11.284;2023-03-30T09:37:13;18.80;52.20
5192;DHT22;2615;44.524;11.284;2023-03-30T09:39:45;18.90;52.10
5192;DHT22;2615;44.524;11.284;2023-03-30T09:42:23;19.10;51.90
5192;DHT22;2615;44.524;11.284;2023-03-30T09:44:55;19.20;51.70
5192;DHT22;2615;44.524;11.284;2023-03-30T09:47:26;19.40;51.70
5192;DHT22;2615;44.524;11.284;2023-03-30T09:49:56;19.60;51.50
5192;DHT22;2615;44.524;11.284;2023-03-30T09:52:26;19.80;51.30
5192;DHT22;2615;44.524;11.284;2023-03-30T09:54:55;19.80;50.90
5192;DHT22;2615;44.524;11.284;2023-03-30T09:57:30;19.90;50.80
5192;DHT22;2615;44.524;11.284;2023-03-30T09:59:59;20.00;50.60
5192;DHT22;2615;44.524;11.284;2023-03-30T10:02:28;20.00;50.50
5192;DHT22;2615;44.524;11.284;2023-03-30T10:05:01;20.10;50.50
5192;DHT22;2615;44.524;11.284;2023-03-30T10:07:32;20.10;50.30
5192;DHT22;2615;44.524;11.284;2023-03-30T10:10:11;20.10;50.30
5192;DHT22;2615;44.524;11.284;2023-03-30T10:12:41;20.20;50.20
5192;DHT22;2615;44.524;11.284;2023-03-30T10:15:15;20.20;50.10
5192;DHT22;2615;44.524;11.284;2023-03-30T10:17:45;20.20;49.80
5192;DHT22;2615;44.524;11.284;2023-03-30T10:20:22;20.20;49.80
5192;DHT22;2615;44.524;11.284;2023-03-30T10:22:52;20.10;49.60
5192;DHT22;2615;44.524;11.284;2023-03-30T10:25:22;20.10;49.60
5192;DHT22;2615;44.524;11.284;2023-03-30T10:27:55;20.20;49.70
5192;DHT22;2615;44.524;11.284;2023-03-30T10:30:24;20.30;49.80
5192;DHT22;2615;44.524;11.284;2023-03-30T10:32:56;20.40;49.60
5192;DHT22;2615;44.524;11.284;2023-03-30T10:35:26;20.50;49.30
5192;DHT22;2615;44.524;11.284;2023-03-30T10:37:55;20.50;49.20
5192;DHT22;2615;44.524;11.284;2023-03-30T10:40:34;20.60;49.10
5192;DHT22;2615;44.524;11.284;2023-03-30T10:43:28;20.60;48.90
5192;DHT22;2615;44.524;11.284;2023-03-30T10:46:10;20.70;49.00
5192;DHT22;2615;44.524;11.284;2023-03-30T10:48:57;21.10;49.00
5192;DHT22;2615;44.524;11.284;2023-03-30T10:51:35;21.60;48.80
5192;DHT22;2615;44.524;11.284;2023-03-30T10:54:10;22.00;48.50
5192;DHT22;2615;44.524;11.284;2023-03-30T10:56:43;22.30;48.20
5192;DHT22;2615;44.524;11.284;2023-03-30T10:59:25;22.70;47.90
5192;DHT22;2615;44.524;11.284;2023-03-30T11:02:13;23.20;47.50
5192;DHT22;2615;44.524;11.284;2023-03-30T11:04:48;23.80;47.00
5192;DHT22;2615;44.524;11.284;2023-03-30T11:07:22;24.30;46.60
5192;DHT22;2615;44.524;11.284;2023-03-30T11:09:53;24.70;46.00
5192;DHT22;2615;44.524;11.284;2023-03-30T11:12:23;25.10;45.60
5192;DHT22;2615;44.524;11.284;2023-03-30T11:14:57;25.50;45.10
5192;DHT22;2615;44.524;11.284;2023-03-30T11:17:29;25.70;44.50
5192;DHT22;2615;44.524;11.284;2023-03-30T11:20:05;25.80;43.90
5192;DHT22;2615;44.524;11.284;2023-03-30T11:22:41;25.70;43.20
5192;DHT22;2615;44.524;11.284;2023-03-30T11:25:18;25.60;43.10
5192;DHT22;2615;44.524;11.284;2023-03-30T11:27:52;25.60;43.20
5192;DHT22;2615;44.524;11.284;2023-03-30T11:30:27;25.50;43.00
5192;DHT22;2615;44.524;11.284;2023-03-30T11:32:58;25.50;42.90
5192;DHT22;2615;44.524;11.284;2023-03-30T11:35:33;25.70;42.90
5192;DHT22;2615;44.524;11.284;2023-03-30T11:38:09;26.00;42.60
5192;DHT22;2615;44.524;11.284;2023-03-30T11:40:41;26.50;42.20
5192;DHT22;2615;44.524;11.284;2023-03-30T11:43:12;27.00;41.70
5192;DHT22;2615;44.524;11.284;2023-03-30T11:45:50;27.50;41.40
5192;DHT22;2615;44.524;11.284;2023-03-30T11:48:50;28.00;40.60
5192;DHT22;2615;44.524;11.284;2023-03-30T11:51:37;28.50;39.80
5192;DHT22;2615;44.524;11.284;2023-03-30T11:54:27;29.00;39.30
5192;DHT22;2615;44.524;11.284;2023-03-30T11:57:05;29.30;38.60
5192;DHT22;2615;44.524;11.284;2023-03-30T11:59:42;29.60;38.10
5192;DHT22;2615;44.524;11.284;2023-03-30T12:02:21;29.70;37.70
5192;DHT22;2615;44.524;11.284;2023-03-30T12:04:55;30.00;36.70
5192;DHT22;2615;44.524;11.284;2023-03-30T12:07:30;30.50;36.40
5192;DHT22;2615;44.524;11.284;2023-03-30T12:10:08;30.60;36.10
5192;DHT22;2615;44.524;11.284;2023-03-30T12:15:25;31.20;35.10
5192;DHT22;2615;44.524;11.284;2023-03-30T12:18:04;31.40;34.90
5192;DHT22;2615;44.524;11.284;2023-03-30T12:20:41;31.20;34.40
5192;DHT22;2615;44.524;11.284;2023-03-30T12:23:26;30.80;34.40
5192;DHT22;2615;44.524;11.284;2023-03-30T12:26:07;30.20;34.20
5192;DHT22;2615;44.524;11.284;2023-03-30T12:28:43;29.50;34.70
5192;DHT22;2615;44.524;11.284;2023-03-30T12:31:50;29.10;34.90
5192;DHT22;2615;44.524;11.284;2023-03-30T12:34:33;28.60;34.80
5192;DHT22;2615;44.524;11.284;2023-03-30T12:37:05;28.10;35.30
5192;DHT22;2615;44.524;11.284;2023-03-30T12:39:40;27.80;35.50
5192;DHT22;2615;44.524;11.284;2023-03-30T12:42:20;27.50;35.70
5192;DHT22;2615;44.524;11.284;2023-03-30T12:45:04;27.30;36.20
5192;DHT22;2615;44.524;11.284;2023-03-30T12:47:53;27.10;36.50
5192;DHT22;2615;44.524;11.284;2023-03-30T12:50:33;26.80;36.50
5192;DHT22;2615;44.524;11.284;2023-03-30T12:53:22;26.60;36.80
5192;DHT22;2615;44.524;11.284;2023-03-30T12:56:00;26.50;36.90
5192;DHT22;2615;44.524;11.284;2023-03-30T12:58:53;26.20;37.10
5192;DHT22;2615;44.524;11.284;2023-03-30T13:01:44;26.00;37.40
5192;DHT22;2615;44.524;11.284;2023-03-30T13:04:17;25.70;37.80
5192;DHT22;2615;44.524;11.284;2023-03-30T13:06:52;25.40;37.90
5192;DHT22;2615;44.524;11.284;2023-03-30T13:09:32;25.20;38.20
5192;DHT22;2615;44.524;11.284;2023-03-30T13:12:28;24.90;38.40
5192;DHT22;2615;44.524;11.284;2023-03-30T13:14:59;24.80;38.30
5192;DHT22;2615;44.524;11.284;2023-03-30T13:17:47;24.70;38.30
5192;DHT22;2615;44.524;11.284;2023-03-30T13:20:18;24.50;38.40
5192;DHT22;2615;44.524;11.284;2023-03-30T13:23:05;24.30;38.50
5192;DHT22;2615;44.524;11.284;2023-03-30T13:25:59;24.10;38.90
5192;DHT22;2615;44.524;11.284;2023-03-30T13:29:03;23.90;39.10
5192;DHT22;2615;44.524;11.284;2023-03-30T13:31:52;23.70;39.60
5192;DHT22;2615;44.524;11.284;2023-03-30T13:34:31;23.60;39.70
5192;DHT22;2615;44.524;11.284;2023-03-30T13:37:11;23.40;39.80
5192;DHT22;2615;44.524;11.284;2023-03-30T13:39:46;23.30;40.00
5192;DHT22;2615;44.524;11.284;2023-03-30T13:42:34;23.20;40.10
5192;DHT22;2615;44.524;11.284;2023-03-30T13:45:11;23.10;40.40
5192;DHT22;2615;44.524;11.284;2023-03-30T13:47:52;23.00;40.50
5192;DHT22;2615;44.524;11.284;2023-03-30T13:50:26;22.90;40.70
5192;DHT22;2615;44.524;11.284;2023-03-30T13:52:59;22.80;40.70
5192;DHT22;2615;44.524;11.284;2023-03-30T13:55:31;22.70;41.30
5192;DHT22;2615;44.524;11.284;2023-03-30T13:58:02;22.70;40.80
5192;DHT22;2615;44.524;11.284;2023-03-30T14:00:34;22.70;40.90
5192;DHT22;2615;44.524;11.284;2023-03-30T14:03:32;22.60;41.00
5192;DHT22;2615;44.524;11.284;2023-03-30T14:06:04;22.60;41.20
5192;DHT22;2615;44.524;11.284;2023-03-30T14:08:37;22.50;41.00
5192;DHT22;2615;44.524;11.284;2023-03-30T14:11:13;22.50;41.10
5192;DHT22;2615;44.524;11.284;2023-03-30T14:13:42;22.40;41.30
5192;DHT22;2615;44.524;11.284;2023-03-30T14:16:16;22.30;41.40
5192;DHT22;2615;44.524;11.284;2023-03-30T14:18:45;22.20;41.50
5192;DHT22;2615;44.524;11.284;2023-03-30T14:21:15;22.20;41.80
5192;DHT22;2615;44.524;11.284;2023-03-30T14:23:47;22.20;42.00
5192;DHT22;2615;44.524;11.284;2023-03-30T14:26:21;22.10;42.00
5192;DHT22;2615;44.524;11.284;2023-03-30T14:28:53;22.10;42.00
5192;DHT22;2615;44.524;11.284;2023-03-30T14:31:22;22.10;42.00
5192;DHT22;2615;44.524;11.284;2023-03-30T14:33:53;22.20;42.10
5192;DHT22;2615;44.524;11.284;2023-03-30T14:36:21;22.30;42.30
5192;DHT22;2615;44.524;11.284;2023-03-30T14:38:51;22.40;42.30
5192;DHT22;2615;44.524;11.284;2023-03-30T14:41:23;22.40;42.20
5192;DHT22;2615;44.524;11.284;2023-03-30T14:43:55;22.40;42.20
5192;DHT22;2615;44.524;11.284;2023-03-30T14:46:27;22.40;42.20
5192;DHT22;2615;44.524;11.284;2023-03-30T14:48:57;22.30;42.00
5192;DHT22;2615;44.524;11.284;2023-03-30T14:51:27;22.30;42.10
5192;DHT22;2615;44.524;11.284;2023-03-30T14:54:01;22.20;42.20
5192;DHT22;2615;44.524;11.284;2023-03-30T14:56:31;22.10;42.20
5192;DHT22;2615;44.524;11.284;2023-03-30T14:58:59;22.10;42.30
5192;DHT22;2615;44.524;11.284;2023-03-30T15:01:29;22.10;42.30
5192;DHT22;2615;44.524;11.284;2023-03-30T15:04:00;22.20;42.30
5192;DHT22;2615;44.524;11.284;2023-03-30T15:06:29;22.20;42.30
5192;DHT22;2615;44.524;11.284;2023-03-30T15:09:00;22.20;42.30
5192;DHT22;2615;44.524;11.284;2023-03-30T15:11:32;22.20;42.40
5192;DHT22;2615;44.524;11.284;2023-03-30T15:14:04;22.30;42.40
5192;DHT22;2615;44.524;11.284;2023-03-30T15:16:36;22.30;42.20
5192;DHT22;2615;44.524;11.284;2023-03-30T15:19:08;22.30;42.10
5192;DHT22;2615;44.524;11.284;2023-03-30T15:21:38;22.20;42.00
5192;DHT22;2615;44.524;11.284;2023-03-30T15:24:09;22.00;41.90
5192;DHT22;2615;44.524;11.284;2023-03-30T15:26:43;21.90;42.10
5192;DHT22;2615;44.524;11.284;2023-03-30T15:29:13;21.70;42.40
5192;DHT22;2615;44.524;11.284;2023-03-30T15:31:42;21.60;42.50
5192;DHT22;2615;44.524;11.284;2023-03-30T15:34:14;21.50;42.70
5192;DHT22;2615;44.524;11.284;2023-03-30T15:36:43;21.40;42.90
5192;DHT22;2615;44.524;11.284;2023-03-30T15:39:19;21.30;43.10
5192;DHT22;2615;44.524;11.284;2023-03-30T15:41:57;21.30;43.40
5192;DHT22;2615;44.524;11.284;2023-03-30T15:44:27;21.30;43.50
5192;DHT22;2615;44.524;11.284;2023-03-30T15:46:56;21.30;43.40
5192;DHT22;2615;44.524;11.284;2023-03-30T15:49:29;21.30;44.00
5192;DHT22;2615;44.524;11.284;2023-03-30T15:52:08;21.30;43.40
5192;DHT22;2615;44.524;11.284;2023-03-30T15:57:18;21.30;43.00
5192;DHT22;2615;44.524;11.284;2023-03-30T15:59:49;21.20;43.40
5192;DHT22;2615;44.524;11.284;2023-03-30T16:02:20;21.20;43.40
5192;DHT22;2615;44.524;11.284;2023-03-30T16:04:49;21.20;43.40
5192;DHT22;2615;44.524;11.284;2023-03-30T16:07:19;21.10;43.40
5192;DHT22;2615;44.524;11.284;2023-03-30T16:09:48;21.10;43.60
5192;DHT22;2615;44.524;11.284;2023-03-30T16:12:19;21.00;43.60
5192;DHT22;2615;44.524;11.284;2023-03-30T16:14:48;20.90;43.60
5192;DHT22;2615;44.524;11.284;2023-03-30T16:17:16;20.80;43.70
5192;DHT22;2615;44.524;11.284;2023-03-30T16:19:44;20.70;43.90
5192;DHT22;2615;44.524;11.284;2023-03-30T16:22:14;20.60;44.00
5192;DHT22;2615;44.524;11.284;2023-03-30T16:24:42;20.50;44.00
5192;DHT22;2615;44.524;11.284;2023-03-30T16:27:11;20.40;44.00
5192;DHT22;2615;44.524;11.284;2023-03-30T16:29:41;20.40;44.10
5192;DHT22;2615;44.524;11.284;2023-03-30T16:32:09;20.30;44.20
5192;DHT22;2615;44.524;11.284;2023-03-30T16:34:37;20.20;44.30